This is the latest recevied weather packets stored in our database for station/object CTLRVL-WX. If no packets are shown the sender has not sent any weather packets the latest 1 day(s).
| Time | Temp. | Humidity | Pressure | Rain* | Wind** | Luminosity | Snow |
|---|---|---|---|---|---|---|---|
| 1778103082 | 11.67° C | 34% | 989.5 hPa | 0 mm | - | - | - |
| 1778099483 | 11.67° C | 34% | 988.8 hPa | 0 mm | - | - | - |
| 1778094968 | 11.67° C | 36% | 988.8 hPa | 0 mm | - | - | - |
| 1778090503 | 11.67° C | 35% | 988.8 hPa | 0 mm | - | - | - |
| 1778089565 | 11.67° C | 37% | 988.8 hPa | 0 mm | - | - | - |
| 1778087768 | 11.67° C | 33% | 989.4 hPa | 0 mm | - | - | - |
| 1778085080 | 11.11° C | 38% | 988.7 hPa | 0 mm | - | - | - |
| 1778084168 | 10.56° C | 38% | 988.7 hPa | 0 mm | - | - | - |
| 1778082367 | 10.56° C | 44% | 989.3 hPa | 0 mm | - | - | - |
| 1778081481 | 10° C | 47% | 988.5 hPa | 0 mm | - | - | - |
| 1778074283 | 7.22° C | 64% | 987.7 hPa | 0 mm | - | - | - |
| 1778069769 | 4.44° C | 73% | 986.6 hPa | 0 mm | - | - | - |
| 1778066165 | 2.78° C | 77% | 986 hPa | 0 mm | - | - | - |
| 1778064364 | 2.22° C | 72% | 985.6 hPa | 0 mm | - | - | - |
| 1778061704 | 2.78° C | 73% | 985.9 hPa | 0 mm | - | - | - |
| 1778058964 | 2.78° C | 68% | 985.3 hPa | 0 mm | - | - | - |
| 1778057165 | 3.33° C | 67% | 984.8 hPa | 0 mm | - | - | - |
| 1778055364 | 3.89° C | 69% | 985.3 hPa | 0 mm | - | - | - |
| 1778054503 | 3.89° C | 69% | 985.3 hPa | 0 mm | - | - | - |
| 1778052683 | 4.44° C | 69% | 985.1 hPa | 0 mm | - | - | - |
| 1778051764 | 4.44° C | 69% | 985.1 hPa | 0 mm | - | - | - |
| 1778049964 | 5° C | 74% | 985.5 hPa | 0 mm | - | - | - |
| 1778049082 | 5° C | 74% | 985.5 hPa | 0 mm | - | - | - |
| 1778048164 | 5.56° C | 74% | 985.5 hPa | 0 mm | - | - | - |
| 1778047312 | 5.56° C | 74% | 985.5 hPa | 0 mm | - | - | - |
* Rain latest hour (hover to see other rain measurements)
** Current wind speed in m/s (hover to see current wind gust speed)